• Join FlightAware (Why Join?)
  • Login
  • US Flag 
01:58AM EST


 

Airport Tracker/Info


-or-


 

Live Flight TrackerFlight Track Log ✈ ACA831 ✈ 2013年08月15日 ✈ CYUL - CYYZ

Flight Track Log - Related Links

Times and Time Zones

All times are in EDT time to prevent confusion due to time zone crossing. See the ACA831 flight status page for this flight to view local times or setup timezone preferences in your user account.

Time Position Orientation Groundspeed Altitude Reporting Facility
EDT Latitude Longitude Course Direction KTS MPH feet Rate Location/Type
04:05PM 45.4550 -73.7550 North  Level FlightAware
04:23PM 45.4680 -73.7270 215° Southwest 94 108 17 Level FlightAware
04:23PM 45.4590 -73.7390 223° Southwest 165 190 300 2,400 Climbing FlightAware
04:23PM 45.4490 -73.7520 222° Southwest 150 173 1,600 3,943 Climbing FlightAware
04:23PM 45.4400 -73.7620 218° Southwest 148 170 2,600 3,771 Climbing FlightAware
04:24PM 45.4290 -73.7750 220° Southwest 164 189 3,800 3,000 Climbing FlightAware
04:24PM 45.4160 -73.7900 219° Southwest 192 221 4,600 2,914 Climbing FlightAware
04:24PM 45.4050 -73.8030 220° Southwest 207 238 5,500 3,000 Climbing FlightAware
04:25PM 45.3960 -73.8200 233° Southwest 229 264 6,100 2,483 Climbing FlightAware
04:25PM 45.3920 -73.8430 256° West 254 292 6,700 3,000 Climbing FlightAware
04:25PM 45.3920 -73.8530 270° West 257 296 7,100 4,364 Climbing FlightAware
04:25PM 45.3940 -73.8610 290° West 256 295 7,500 4,800 Climbing FlightAware
04:25PM 45.4080 -73.9000 297° West 262 302 9,500 4,200 Climbing FlightAware
04:26PM 45.4280 -73.9570 297° West 296 341 11,700 3,257 Climbing FlightAware
04:27PM 45.4490 -74.0250 294° West 339 390 13,300 3,164 Climbing FlightAware
04:27PM 45.4540 -74.0680 279° West 346 398 14,600 3,273 Climbing FlightAware
04:28PM 45.4460 -74.1510 262° West 366 421 16,300 4,746 Climbing FlightAware
04:28PM 45.4380 -74.2230 261° West 327 376 19,900 6,000 Climbing FlightAware
04:29PM 45.4290 -74.2990 260° West 308 354 23,100 3,667 Climbing FlightAware
04:29PM 45.4200 -74.3700 260° West 333 383 24,300 1,690 Climbing FlightAware
04:30PM 45.4100 -74.4490 260° West 371 427 25,100 1,800 Climbing FlightAware
04:30PM 45.3950 -74.5380 257° West 390 449 26,400 2,451 Climbing FlightAware
04:31PM 45.3800 -74.6250 256° West 399 459 28,000 2,535 Climbing FlightAware
04:32PM 45.3650 -74.7160 257° West 409 471 29,400 2,435 Climbing FlightAware
04:32PM 45.3500 -74.8070 257° West 414 476 30,800 2,451 Climbing FlightAware
04:33PM 45.3340 -74.9000 256° West 411 473 32,300 1,775 Climbing FlightAware
04:33PM 45.3180 -74.9920 256° West 406 467 32,900 957 Climbing FlightAware
04:34PM 45.3030 -75.0790 256° West 399 459 33,400 943 Climbing FlightAware
04:35PM 45.2870 -75.1720 256° West 396 456 34,000 514 Climbing FlightAware
04:35PM 45.2710 -75.2610 256° West 396 456 34,000  Level FlightAware
04:36PM 45.2560 -75.3480 256° West 397 457 34,000  Level FlightAware
04:36PM 45.2400 -75.4350 255° West 399 459 34,000  Level FlightAware
04:37PM 45.2210 -75.5400 256° West 401 461 34,000  Level FlightAware
04:38PM 45.2060 -75.6270 256° West 401 461 34,000  Level FlightAware
04:38PM 45.1900 -75.7150 256° West 402 463 34,000  Level FlightAware
04:39PM 45.1740 -75.8030 256° West 402 463 34,000  Level FlightAware
04:39PM 45.1570 -75.8970 256° West 402 463 34,000  Level FlightAware
04:40PM 45.1410 -75.9880 256° West 402 463 34,000  Level FlightAware
04:40PM 45.1260 -76.0700 255° West 400 460 34,000  Level FlightAware
04:41PM 45.1090 -76.1630 256° West 399 459 34,000  Level FlightAware
04:42PM 45.0920 -76.2420 253° West 397 457 34,000  Level FlightAware
04:43PM 45.0490 -76.3590 243° Southwest 403 464 34,000  Level FlightAware
04:43PM 45.0150 -76.4440 241° Southwest 402 463 34,000  Level FlightAware
04:44PM 44.9790 -76.5360 241° Southwest 401 461 34,000  Level FlightAware
04:44PM 44.9480 -76.6140 241° Southwest 401 461 34,000  Level FlightAware
04:45PM 44.9150 -76.6980 241° Southwest 400 460 34,000  Level FlightAware
04:46PM 44.8860 -76.7720 241° Southwest 401 461 34,000  Level FlightAware
04:46PM 44.8530 -76.8540 240° Southwest 402 463 34,000  Level FlightAware
04:47PM 44.8220 -76.9320 241° Southwest 402 463 34,000  Level FlightAware
04:47PM 44.7890 -77.0140 240° Southwest 403 464 34,000  Level FlightAware
04:48PM 44.7580 -77.0910 240° Southwest 404 465 34,000  Level FlightAware
04:48PM 44.7250 -77.1710 240° Southwest 404 465 34,000  Level FlightAware
04:49PM 44.6940 -77.2480 240° Southwest 404 465 34,000  Level FlightAware
04:50PM 44.6620 -77.3260 240° Southwest 405 466 34,000  Level FlightAware
04:50PM 44.6290 -77.4080 241° Southwest 405 466 34,000 -343 Level FlightAware
04:51PM 44.5960 -77.4880 240° Southwest 409 471 33,600 -1,147 Descending FlightAware
04:51PM 44.5620 -77.5710 240° Southwest 413 475 32,700 -1,352 Descending FlightAware
04:52PM 44.5240 -77.6620 240° Southwest 410 472 32,000 -1,378 Descending FlightAware
04:53PM 44.4900 -77.7440 240° Southwest 404 465 31,000 -1,923 Descending FlightAware
04:53PM 44.4520 -77.8370 240° Southwest 392 451 29,500 -2,325 Descending FlightAware
04:54PM 44.4190 -77.9160 240° Southwest 390 449 27,900 -2,514 Descending FlightAware
04:54PM 44.3890 -77.9890 240° Southwest 388 447 26,400 -2,720 Descending FlightAware
04:55PM 44.3490 -78.0830 239° Southwest 384 442 24,500 -2,838 Descending FlightAware
04:56PM 44.3190 -78.1550 240° Southwest 381 438 22,900 -2,954 Descending FlightAware
04:56PM 44.2910 -78.2210 239° Southwest 387 445 21,300 -3,046 Descending FlightAware
04:57PM 44.2590 -78.2970 240° Southwest 387 445 19,600 -2,475 Descending FlightAware
04:58PM 44.2190 -78.3910 239° Southwest 381 438 18,000 -2,550 Descending FlightAware
04:58PM 44.1890 -78.4620 240° Southwest 379 436 16,200 -2,829 Descending FlightAware
04:59PM 44.1600 -78.5310 240° Southwest 382 440 14,700 -2,829 Descending FlightAware
04:59PM 44.1260 -78.6100 239° Southwest 376 433 12,900 -2,229 Descending FlightAware
05:00PM 44.0960 -78.6800 239° Southwest 353 406 12,100 -1,385 Descending FlightAware
05:00PM 44.0730 -78.7340 239° Southwest 340 391 11,400 -1,543 Descending FlightAware
05:01PM 44.0400 -78.8080 238° Southwest 329 379 10,300 -1,200 Descending FlightAware
05:01PM 44.0150 -78.8490 230° Southwest 307 353 10,100 -436 Descending FlightAware
05:02PM 43.9910 -78.8850 227° Southwest 289 333 9,900 -800 Descending FlightAware
05:02PM 43.9770 -78.9070 229° Southwest 284 327 9,500 -1,784 Descending FlightAware
05:03PM 43.9560 -78.9380 227° Southwest 288 331 8,800 -1,800 Descending FlightAware
05:03PM 43.9370 -78.9650 226° Southwest 286 329 8,300 -1,263 Descending FlightAware
05:03PM 43.9200 -78.9910 228° Southwest 280 322 8,000 -857 Descending FlightAware
05:04PM 43.9030 -79.0160 227° Southwest 270 311 7,700 -900 Descending FlightAware
05:04PM 43.8880 -79.0390 228° Southwest 259 298 7,400 -882 Descending FlightAware
05:04PM 43.8750 -79.0590 228° Southwest 245 282 7,200 -692 Descending FlightAware
05:04PM 43.8690 -79.0730 239° Southwest 237 273 7,100 -600 Descending FlightAware
05:04PM 43.8660 -79.0880 255° West 232 267 7,000 -409 Descending FlightAware
05:05PM 43.8660 -79.1380 270° West 230 265 6,800 -444 Descending FlightAware
05:05PM 43.8670 -79.1620 273° West 228 262 6,600 -600 Descending FlightAware
05:06PM 43.8670 -79.1820 270° West 232 267 6,500 -600 Descending FlightAware
05:06PM 43.8680 -79.2110 273° West 231 266 6,300 -439 Descending FlightAware
05:06PM 43.8680 -79.2380 270° West 229 264 6,200 -419 Descending FlightAware
05:07PM 43.8690 -79.2660 273° West 229 264 6,000 -508 Descending FlightAware
05:07PM 43.8620 -79.3230 260° West 223 257 5,700 -453 Descending FlightAware
05:07PM 43.8520 -79.3420 234° Southwest 218 251 5,600 -667 Descending FlightAware
05:08PM 43.8380 -79.3620 226° Southwest 216 249 5,300 -1,200 Descending FlightAware
05:08PM 43.8280 -79.3770 227° Southwest 217 250 4,900 -1,371 Descending FlightAware
05:08PM 43.8130 -79.3970 224° Southwest 217 250 4,500 -1,135 Descending FlightAware
05:09PM 43.8040 -79.4110 228° Southwest 215 247 4,200 -1,200 Descending FlightAware
05:09PM 43.7900 -79.4310 226° Southwest 209 241 3,800 -1,105 Descending FlightAware
05:09PM 43.7770 -79.4500 227° Southwest 209 241 3,500 -857 Descending FlightAware
05:10PM 43.7660 -79.4660 226° Southwest 203 234 3,200 -1,067 Descending FlightAware
05:10PM 43.7480 -79.4920 226° Southwest 181 208 2,700 -1,256 Descending FlightAware
05:10PM 43.7370 -79.5080 226° Southwest 164 189 2,300 -900 Descending FlightAware
05:11PM 43.7270 -79.5220 225° Southwest 150 173 2,100 -750 Descending FlightAware
05:11PM 43.7180 -79.5350 226° Southwest 144 166 1,800 -750 Descending FlightAware
05:11PM 43.7110 -79.5450 226° Southwest 143 165 1,600 -667 Descending FlightAware
05:12PM 43.6970 -79.5650 226° Southwest 142 163 1,300 -800 Descending FlightAware
05:12PM 43.6880 -79.5780 226° Southwest 135 155 1,000 -750 Descending FlightAware
05:12PM 43.6800 -79.5890 225° Southwest 137 158 800 -686 Descending FlightAware
05:13PM 43.6730 -79.6000 229° Southwest 137 158 600 -279 Descending FlightAware
05:13PM 43.6620 -79.6150 225° Southwest 137 158 600  Level FlightAware